Time;durP1;ratioP1;P1;durP2;ratioP2;P2;SDS_P1;SDS_P2;PMS_P1;PMS_P2;Temp;Humidity;BMP_temperature;BMP_pressure;BME280_temperature;BME280_humidity;BME280_pressure;Samples;Min_cycle;Max_cycle;Signal;HPM_P1;HPM_P2
2022/03/18 00:00:24;;;;;;;23.48;11.88;;;8.60;54.80;;;;;;5023817;28;20068;-43
2022/03/18 00:02:53;;;;;;;23.85;12.25;;;8.60;54.90;;;;;;5024258;28;20053;-42
2022/03/18 00:05:21;;;;;;;26.05;12.25;;;8.50;54.80;;;;;;5020285;28;20053;-43
2022/03/18 00:07:49;;;;;;;23.35;12.75;;;8.50;54.90;;;;;;5023769;28;20053;-43
2022/03/18 00:10:18;;;;;;;29.65;13.57;;;8.50;54.90;;;;;;5023812;28;20057;-43
2022/03/18 00:12:46;;;;;;;23.75;11.98;;;8.50;55.00;;;;;;5022685;28;20049;-43
2022/03/18 00:15:15;;;;;;;22.77;12.68;;;8.50;55.00;;;;;;5021058;28;20068;-43
2022/03/18 00:17:43;;;;;;;24.58;12.75;;;8.40;55.00;;;;;;5023870;28;20065;-45
2022/03/18 00:20:13;;;;;;;21.20;12.82;;;8.40;55.10;;;;;;5021567;28;20069;-42
2022/03/18 00:22:42;;;;;;;20.55;11.57;;;8.40;55.10;;;;;;5023723;28;20417;-43
2022/03/18 00:25:10;;;;;;;21.73;12.57;;;8.40;55.10;;;;;;5019409;28;20053;-43
2022/03/18 00:27:38;;;;;;;27.55;13.70;;;8.40;55.10;;;;;;5024556;28;20057;-43
2022/03/18 00:30:07;;;;;;;23.65;12.93;;;8.40;55.10;;;;;;5022667;28;20060;-44
2022/03/18 00:32:38;;;;;;;34.72;15.48;;;8.30;55.00;;;;;;5023013;28;20410;-43
2022/03/18 00:35:07;;;;;;;24.63;12.93;;;8.30;55.20;;;;;;5019714;28;20061;-43
2022/03/18 00:37:36;;;;;;;25.55;14.13;;;8.30;55.20;;;;;;5023005;28;20513;-43
2022/03/18 00:40:04;;;;;;;31.58;14.93;;;8.20;55.20;;;;;;5022608;28;20061;-42
2022/03/18 00:42:32;;;;;;;26.55;13.75;;;8.30;55.30;;;;;;5021285;28;20061;-43
2022/03/18 00:45:00;;;;;;;26.52;14.25;;;8.20;55.30;;;;;;5020988;28;20053;-42
2022/03/18 00:53:00;;;;;;;28.67;14.75;;;8.20;55.40;;;;;;5029762;28;20061;-42
2022/03/18 00:55:27;;;;;;;25.27;13.48;;;8.20;55.40;;;;;;5020501;28;20080;-42
2022/03/18 00:57:55;;;;;;;30.70;15.90;;;8.10;55.40;;;;;;5020706;28;20421;-42
2022/03/18 01:00:23;;;;;;;27.98;15.57;;;8.10;55.40;;;;;;5020537;28;20490;-43
2022/03/18 01:02:50;;;;;;;36.75;17.02;;;8.10;55.50;;;;;;5023139;28;20046;-43
2022/03/18 01:05:19;;;;;;;25.63;14.93;;;8.10;55.50;;;;;;5018586;28;20057;-42
2022/03/18 01:07:47;;;;;;;29.48;14.60;;;8.10;55.50;;;;;;5022207;28;20053;-42
2022/03/18 01:10:14;;;;;;;30.40;16.23;;;8.10;55.50;;;;;;5021487;28;20053;-42
2022/03/18 01:12:42;;;;;;;29.23;14.55;;;8.00;55.40;;;;;;5022056;28;20045;-44
2022/03/18 01:15:10;;;;;;;24.95;14.88;;;8.00;55.40;;;;;;5019739;28;20053;-43
2022/03/18 01:17:37;;;;;;;27.20;14.55;;;8.00;55.50;;;;;;5022775;28;20061;-43
2022/03/18 01:20:06;;;;;;;26.20;14.20;;;8.00;55.50;;;;;;5020441;28;20064;-43
2022/03/18 01:22:35;;;;;;;21.73;13.10;;;7.90;55.50;;;;;;5023397;28;20054;-46
2022/03/18 01:25:02;;;;;;;24.02;13.98;;;7.90;55.50;;;;;;5020441;28;20080;-43
2022/03/18 01:27:30;;;;;;;30.27;14.85;;;7.90;55.50;;;;;;5022842;28;20068;-43
2022/03/18 01:29:57;;;;;;;23.77;14.07;;;7.90;55.60;;;;;;5022158;28;20064;-43
2022/03/18 01:32:25;;;;;;;24.25;14.13;;;7.90;55.60;;;;;;5021763;28;20058;-46
2022/03/18 01:34:53;;;;;;;29.33;14.63;;;7.80;55.60;;;;;;5018079;28;20053;-43
2022/03/18 01:37:21;;;;;;;33.60;16.30;;;7.80;55.60;;;;;;5022025;28;20064;-42
2022/03/18 01:39:49;;;;;;;31.85;16.40;;;7.80;55.60;;;;;;5021547;28;20429;-42
2022/03/18 01:42:17;;;;;;;31.48;16.20;;;7.80;55.60;;;;;;5022489;28;20045;-42
2022/03/18 01:44:46;;;;;;;31.42;15.10;;;7.80;55.70;;;;;;5019784;28;20068;-43
2022/03/18 01:47:14;;;;;;;22.83;13.80;;;7.70;55.60;;;;;;5022085;28;20057;-42
2022/03/18 01:49:42;;;;;;;26.45;14.00;;;7.70;55.70;;;;;;5020364;28;20504;-42
2022/03/18 01:52:11;;;;;;;27.02;14.48;;;7.70;55.80;;;;;;5023096;28;20417;-43
2022/03/18 01:54:47;;;;;;;29.30;15.90;;;7.70;56.30;;;;;;5019261;28;20050;-43
2022/03/18 01:57:18;;;;;;;33.35;18.25;;;7.70;55.90;;;;;;5021799;28;20053;-45
2022/03/18 01:59:47;;;;;;;38.70;18.80;;;7.60;55.90;;;;;;5021312;28;20057;-43
2022/03/18 02:02:15;;;;;;;31.70;17.00;;;7.60;56.00;;;;;;5021714;28;20057;-42
2022/03/18 02:04:43;;;;;;;35.75;17.25;;;7.60;56.20;;;;;;5018601;28;20486;-45
2022/03/18 02:07:11;;;;;;;26.45;14.90;;;7.60;56.30;;;;;;5022929;28;20517;-43
2022/03/18 02:09:40;;;;;;;25.25;14.38;;;7.60;56.40;;;;;;5021387;28;20505;-43
2022/03/18 02:12:09;;;;;;;26.95;14.93;;;7.50;56.30;;;;;;5021470;28;20049;-42
2022/03/18 02:14:40;;;;;;;26.00;14.10;;;7.50;56.40;;;;;;5019512;28;20053;-45
2022/03/18 02:17:09;;;;;;;28.95;15.40;;;7.50;56.40;;;;;;5021405;28;20064;-44
2022/03/18 02:19:38;;;;;;;28.27;14.25;;;7.50;56.40;;;;;;5019581;28;20053;-43
2022/03/18 02:22:10;;;;;;;30.40;15.43;;;7.50;56.40;;;;;;5022301;28;20057;-43
2022/03/18 02:24:41;;;;;;;28.23;15.40;;;7.50;56.40;;;;;;5019068;28;20061;-42
2022/03/18 02:27:09;;;;;;;24.33;14.55;;;7.50;56.30;;;;;;5021263;28;20057;-42
2022/03/18 02:29:37;;;;;;;29.48;13.20;;;7.50;56.30;;;;;;5020969;28;20057;-42
2022/03/18 02:32:06;;;;;;;31.13;14.90;;;7.40;56.30;;;;;;5020118;28;20072;-43
2022/03/18 02:34:34;;;;;;;25.58;13.85;;;7.40;56.30;;;;;;5016890;28;20056;-43
2022/03/18 02:37:02;;;;;;;30.13;15.82;;;7.40;56.30;;;;;;5017716;28;20064;-44
2022/03/18 02:39:30;;;;;;;27.88;15.48;;;7.40;56.40;;;;;;5015849;28;20517;-42
2022/03/18 02:41:59;;;;;;;31.63;16.05;;;7.40;56.90;;;;;;5021864;28;20410;-42
2022/03/18 02:44:27;;;;;;;32.63;15.57;;;7.40;56.50;;;;;;5019210;28;20049;-44
2022/03/18 02:46:54;;;;;;;34.95;17.63;;;7.30;56.30;;;;;;5020165;28;20061;-43
2022/03/18 02:49:24;;;;;;;33.25;17.83;;;7.30;56.50;;;;;;5019422;28;20045;-43
2022/03/18 02:51:52;;;;;;;38.10;17.60;;;7.30;56.60;;;;;;5021786;28;20050;-43
2022/03/18 02:54:19;;;;;;;45.88;20.73;;;7.30;56.70;;;;;;5018140;28;20060;-43
2022/03/18 02:56:47;;;;;;;50.95;20.90;;;7.20;56.80;;;;;;5021301;28;20080;-43
2022/03/18 02:59:16;;;;;;;41.67;20.40;;;7.20;57.10;;;;;;5020225;28;20053;-43
2022/03/18 03:01:43;;;;;;;43.55;19.77;;;7.10;57.30;;;;;;5020642;28;20053;-44
2022/03/18 03:04:13;;;;;;;38.25;18.73;;;7.00;57.30;;;;;;5016300;28;20052;-43
2022/03/18 03:09:25;;;;;;;27.50;15.23;;;6.90;57.50;;;;;;5026342;28;20053;-43
2022/03/18 03:11:52;;;;;;;29.23;15.63;;;6.80;57.60;;;;;;5021389;28;20422;-43
2022/03/18 03:14:21;;;;;;;26.38;14.32;;;6.80;57.60;;;;;;5017149;28;20667;-42
2022/03/18 03:16:49;;;;;;;26.45;15.55;;;6.80;57.60;;;;;;5020243;28;20057;-43
2022/03/18 03:19:17;;;;;;;32.47;15.02;;;6.70;57.50;;;;;;5019508;28;20437;-42
2022/03/18 03:21:44;;;;;;;30.00;16.30;;;6.80;57.40;;;;;;5023897;28;20049;-43
2022/03/18 03:24:12;;;;;;;30.08;17.10;;;6.70;57.30;;;;;;5022133;28;20478;-48
2022/03/18 03:26:39;;;;;;;27.20;15.95;;;6.70;57.30;;;;;;5025763;28;20053;-42
2022/03/18 03:29:07;;;;;;;26.60;15.60;;;6.70;57.20;;;;;;5023936;28;20427;-42
2022/03/18 03:31:36;;;;;;;29.27;15.55;;;6.70;57.20;;;;;;5023058;28;20437;-42
2022/03/18 03:34:03;;;;;;;28.95;15.82;;;6.70;57.30;;;;;;5020118;28;20053;-43
2022/03/18 03:36:31;;;;;;;29.35;15.90;;;6.70;57.20;;;;;;5022634;28;20069;-43
2022/03/18 03:38:58;;;;;;;25.63;14.70;;;6.70;57.20;;;;;;5024486;28;20061;-42
2022/03/18 03:41:26;;;;;;;23.98;15.02;;;6.70;57.10;;;;;;5024917;28;20057;-44
2022/03/18 03:43:54;;;;;;;26.55;15.00;;;6.70;57.10;;;;;;5021101;28;20065;-44
2022/03/18 03:46:21;;;;;;;28.30;14.77;;;6.70;57.10;;;;;;5021636;28;20050;-44
2022/03/18 03:48:50;;;;;;;23.88;14.13;;;6.70;57.10;;;;;;5022295;28;20428;-43
2022/03/18 03:51:18;;;;;;;28.50;15.65;;;6.60;57.10;;;;;;5024761;28;20075;-43
2022/03/18 03:53:45;;;;;;;33.40;14.85;;;6.60;57.20;;;;;;5023768;28;20486;-42
2022/03/18 03:56:12;;;;;;;26.60;14.88;;;6.60;57.10;;;;;;5022743;28;20272;-43
2022/03/18 03:58:40;;;;;;;24.67;15.07;;;6.60;57.10;;;;;;5022722;28;20053;-43
2022/03/18 04:01:07;;;;;;;28.65;16.23;;;6.60;57.20;;;;;;5022777;28;20421;-43
2022/03/18 04:03:35;;;;;;;25.58;14.88;;;6.60;57.20;;;;;;5022562;28;20053;-42
2022/03/18 04:06:04;;;;;;;27.73;14.60;;;6.60;57.20;;;;;;5018863;28;20045;-42
2022/03/18 04:08:31;;;;;;;29.83;15.07;;;6.60;57.20;;;;;;5021466;28;20095;-44
2022/03/18 04:10:59;;;;;;;32.13;16.75;;;6.60;57.20;;;;;;5022937;28;20072;-44
2022/03/18 04:13:26;;;;;;;27.88;16.73;;;6.60;57.30;;;;;;5021681;28;20053;-42
2022/03/18 04:15:54;;;;;;;34.58;17.23;;;6.60;57.20;;;;;;5022627;28;20053;-42
2022/03/18 04:18:21;;;;;;;38.40;16.92;;;6.60;57.20;;;;;;5021825;28;20053;-42
2022/03/18 04:20:49;;;;;;;28.80;15.52;;;6.50;57.20;;;;;;5023600;28;20060;-42
2022/03/18 04:23:18;;;;;;;25.45;15.27;;;6.60;57.20;;;;;;5022709;28;20049;-44
2022/03/18 04:25:45;;;;;;;33.80;15.85;;;6.50;57.20;;;;;;5020405;28;20057;-43
2022/03/18 04:28:12;;;;;;;27.30;14.95;;;6.50;57.30;;;;;;5022077;28;20441;-43
2022/03/18 04:30:40;;;;;;;24.42;14.32;;;6.50;57.30;;;;;;5022919;28;20064;-42
2022/03/18 04:33:07;;;;;;;31.75;16.83;;;6.50;57.30;;;;;;5022374;28;20490;-44
2022/03/18 04:35:35;;;;;;;30.23;15.27;;;6.50;57.30;;;;;;5020372;28;20061;-43
2022/03/18 04:38:03;;;;;;;26.88;14.35;;;6.50;57.30;;;;;;5023005;28;20069;-42
2022/03/18 04:40:32;;;;;;;30.33;15.85;;;6.50;57.30;;;;;;5020096;28;20045;-43
2022/03/18 04:43:00;;;;;;;24.58;14.32;;;6.40;57.70;;;;;;5023470;28;20056;-44
2022/03/18 04:45:28;;;;;;;27.83;14.73;;;6.50;57.30;;;;;;5017531;28;20076;-44
2022/03/18 04:47:55;;;;;;;33.20;16.00;;;6.40;57.30;;;;;;5022835;28;20053;-43
2022/03/18 04:50:23;;;;;;;29.55;15.32;;;6.40;57.30;;;;;;5021662;28;20045;-42
2022/03/18 04:52:51;;;;;;;56.78;26.77;;;6.40;57.40;;;;;;5022864;28;20060;-42
2022/03/18 04:55:18;;;;;;;35.03;19.23;;;6.40;57.40;;;;;;5020466;28;20412;-42
2022/03/18 04:57:47;;;;;;;31.75;17.00;;;6.40;57.50;;;;;;5022820;28;20057;-42
2022/03/18 05:00:17;;;;;;;25.58;14.07;;;6.40;57.50;;;;;;5022010;28;20053;-42
2022/03/18 05:02:44;;;;;;;25.13;12.77;;;6.40;57.50;;;;;;5022986;28;20064;-42
2022/03/18 05:05:17;;;;;;;23.50;12.10;;;6.30;57.50;;;;;;5018884;28;20053;-46
2022/03/18 05:07:49;;;;;;;23.67;12.07;;;6.30;57.50;;;;;;5023578;28;20053;-42
2022/03/18 05:10:16;;;;;;;28.38;12.73;;;6.30;57.50;;;;;;5022440;28;20057;-42
2022/03/18 05:12:45;;;;;;;21.98;12.65;;;6.30;57.50;;;;;;5023220;28;20053;-42
2022/03/18 05:15:14;;;;;;;30.70;13.93;;;6.30;57.50;;;;;;5016220;28;20045;-43
2022/03/18 05:17:48;;;;;;;20.92;12.15;;;6.30;57.60;;;;;;4996766;28;20419;-44
2022/03/18 05:20:16;;;;;;;;;;;6.30;57.50;;;;;;5018804;28;20080;-43
2022/03/18 05:22:44;;;;;;;22.60;12.35;;;6.30;57.60;;;;;;5023363;28;19920;-42
2022/03/18 05:25:12;;;;;;;25.08;12.88;;;6.30;57.30;;;;;;5021172;28;20445;-43
2022/03/18 05:27:41;;;;;;;24.63;13.20;;;6.30;57.40;;;;;;5021440;28;20053;-44
2022/03/18 05:30:11;;;;;;;24.83;13.18;;;6.30;57.40;;;;;;5021126;28;20064;-42
2022/03/18 05:32:40;;;;;;;26.90;13.00;;;6.20;57.40;;;;;;5021692;28;20659;-42
2022/03/18 05:35:09;;;;;;;24.00;12.70;;;6.20;57.50;;;;;;5014513;28;20050;-43
2022/03/18 05:37:36;;;;;;;33.00;14.63;;;6.20;57.50;;;;;;5022536;28;20057;-42
2022/03/18 05:40:04;;;;;;;24.42;13.52;;;6.10;57.60;;;;;;5021110;28;20049;-45
2022/03/18 05:42:32;;;;;;;23.15;13.15;;;6.10;57.70;;;;;;5021684;28;20064;-42
2022/03/18 05:45:00;;;;;;;22.60;12.52;;;6.10;57.70;;;;;;5020339;28;20050;-44
2022/03/18 05:47:28;;;;;;;26.77;14.82;;;6.10;57.70;;;;;;5003425;28;20060;-42
2022/03/18 05:50:03;;;;;;;28.92;13.75;;;6.10;57.80;;;;;;5018014;28;20091;-43
2022/03/18 05:52:31;;;;;;;25.40;12.27;;;6.10;57.90;;;;;;5021436;28;20049;-43
2022/03/18 05:54:59;;;;;;;23.77;13.43;;;6.10;57.90;;;;;;5017540;28;20053;-44
2022/03/18 05:57:26;;;;;;;31.27;13.93;;;6.10;57.90;;;;;;5015202;28;20049;-42
2022/03/18 05:59:54;;;;;;;30.10;15.25;;;6.00;57.90;;;;;;5020505;28;20053;-42
2022/03/18 06:02:22;;;;;;;31.45;15.32;;;6.00;58.00;;;;;;5020493;28;20049;-42
2022/03/18 06:04:50;;;;;;;32.13;14.63;;;6.00;58.00;;;;;;5018262;28;20049;-42
2022/03/18 06:07:19;;;;;;;35.35;15.43;;;6.00;58.10;;;;;;5017335;28;20065;-44
2022/03/18 06:12:32;;;;;;;33.20;15.70;;;5.80;58.10;;;;;;5021755;28;20064;-42
2022/03/18 06:14:59;;;;;;;27.10;14.50;;;5.70;58.20;;;;;;5017595;28;20057;-42
2022/03/18 06:17:27;;;;;;;25.80;14.60;;;5.60;58.40;;;;;;5021333;28;20057;-44
2022/03/18 06:19:54;;;;;;;28.23;14.57;;;5.50;58.60;;;;;;5017960;28;20107;-43
2022/03/18 06:22:23;;;;;;;26.15;14.00;;;5.50;58.80;;;;;;5022197;28;20056;-42
2022/03/18 06:24:51;;;;;;;28.08;14.88;;;5.50;58.90;;;;;;5020576;28;20060;-42
2022/03/18 06:27:18;;;;;;;26.17;14.15;;;5.40;59.00;;;;;;5019485;28;20053;-42
2022/03/18 06:29:46;;;;;;;30.27;17.70;;;5.40;59.00;;;;;;5020959;28;20064;-42
2022/03/18 06:32:13;;;;;;;30.17;14.98;;;5.40;59.20;;;;;;5021147;28;20520;-43
2022/03/18 06:34:41;;;;;;;27.73;13.48;;;5.50;59.30;;;;;;5018983;28;20078;-42
2022/03/18 06:37:08;;;;;;;37.85;16.88;;;5.50;59.40;;;;;;4978705;28;20545;-44
2022/03/18 06:39:37;;;;;;;24.30;13.82;;;5.50;59.50;;;;;;4980247;28;20062;-42
2022/03/18 06:42:05;;;;;;;24.02;14.00;;;5.50;59.50;;;;;;4980289;28;20054;-42
2022/03/18 06:44:33;;;;;;;29.13;14.93;;;5.50;59.50;;;;;;4973377;28;20411;-42
2022/03/18 06:47:01;;;;;;;25.60;14.00;;;5.50;59.60;;;;;;4979680;28;20066;-43
2022/03/18 06:49:28;;;;;;;37.42;16.90;;;5.60;59.60;;;;;;4979528;28;20058;-42
2022/03/18 06:51:56;;;;;;;34.33;17.50;;;5.60;59.90;;;;;;4980591;28;20411;-42
2022/03/18 06:54:23;;;;;;;46.78;19.33;;;5.60;60.20;;;;;;4977721;28;20054;-42
2022/03/18 06:56:53;;;;;;;42.63;16.27;;;5.60;60.70;;;;;;5002124;28;20053;-47
2022/03/18 06:59:20;;;;;;;31.45;16.40;;;5.60;61.00;;;;;;5004967;28;20520;-42
2022/03/18 07:01:48;;;;;;;36.38;17.15;;;5.50;60.80;;;;;;5004066;28;20057;-43
2022/03/18 07:04:16;;;;;;;40.22;17.65;;;5.50;60.50;;;;;;5002890;28;20065;-45
2022/03/18 07:06:46;;;;;;;37.08;18.10;;;5.50;60.40;;;;;;5001722;28;20491;-42
2022/03/18 07:09:13;;;;;;;36.60;17.77;;;5.40;60.00;;;;;;5020848;28;20123;-42
2022/03/18 07:11:41;;;;;;;44.78;21.08;;;5.40;59.80;;;;;;5021926;28;20049;-42
2022/03/18 07:14:10;;;;;;;44.25;21.83;;;5.30;60.20;;;;;;5022530;28;20053;-42
2022/03/18 07:19:26;;;;;;;41.20;21.42;;;5.20;61.50;;;;;;5024356;28;20504;-42
2022/03/18 07:21:54;;;;;;;39.70;20.75;;;5.10;61.90;;;;;;5023507;28;20425;-43
2022/03/18 07:24:22;;;;;;;47.97;21.63;;;5.10;62.90;;;;;;5021304;28;20494;-42
2022/03/18 07:26:50;;;;;;;45.58;22.92;;;5.10;63.60;;;;;;5023921;28;20429;-42
2022/03/18 07:29:19;;;;;;;44.42;23.67;;;5.00;64.10;;;;;;5023491;28;20528;-43
2022/03/18 07:31:46;;;;;;;45.15;23.20;;;5.00;64.30;;;;;;5020897;28;20053;-42
2022/03/18 07:34:14;;;;;;;41.45;22.80;;;5.10;64.40;;;;;;5018942;28;20053;-43
2022/03/18 07:36:42;;;;;;;45.55;22.83;;;5.10;64.80;;;;;;5024139;28;20057;-43
2022/03/18 07:39:11;;;;;;;33.38;19.83;;;5.20;64.90;;;;;;5022682;28;20053;-42
2022/03/18 07:41:39;;;;;;;38.90;21.30;;;5.20;64.90;;;;;;5025436;28;20056;-42
2022/03/18 07:44:07;;;;;;;45.53;21.50;;;5.30;65.00;;;;;;5020324;28;20049;-42
2022/03/18 07:46:36;;;;;;;37.13;20.35;;;5.40;65.10;;;;;;5024206;28;20068;-42
2022/03/18 07:49:04;;;;;;;35.33;20.23;;;5.50;65.20;;;;;;5023414;28;20492;-42
2022/03/18 07:51:31;;;;;;;33.45;19.42;;;5.60;65.20;;;;;;5023771;28;20064;-43
2022/03/18 07:53:59;;;;;;;41.67;20.15;;;5.70;65.10;;;;;;5022559;28;20905;-42
2022/03/18 07:56:27;;;;;;;43.45;21.23;;;5.70;64.90;;;;;;5024283;28;20053;-42
2022/03/18 07:58:55;;;;;;;36.00;18.15;;;5.90;64.80;;;;;;5023709;28;20062;-46
2022/03/18 08:01:23;;;;;;;26.75;16.60;;;5.90;64.60;;;;;;5025261;28;20064;-42
2022/03/18 08:03:52;;;;;;;39.78;18.25;;;6.00;64.50;;;;;;5020383;28;20065;-44
2022/03/18 08:06:21;;;;;;;32.05;17.02;;;6.10;64.50;;;;;;5021049;28;20068;-43
2022/03/18 08:08:48;;;;;;;28.88;15.32;;;6.20;64.40;;;;;;5023120;28;20520;-42
2022/03/18 08:11:16;;;;;;;26.88;13.85;;;6.30;64.30;;;;;;5018136;28;20053;-44
2022/03/18 08:13:45;;;;;;;28.90;14.13;;;6.30;64.00;;;;;;5021511;28;20049;-45
2022/03/18 08:16:13;;;;;;;24.58;10.82;;;6.40;63.70;;;;;;5023756;28;20339;-43
2022/03/18 08:18:41;;;;;;;21.95;9.35;;;6.50;63.40;;;;;;5021471;28;20506;-43
2022/03/18 08:21:10;;;;;;;22.58;9.43;;;6.60;63.30;;;;;;5023822;28;20053;-42
2022/03/18 08:23:37;;;;;;;24.35;8.90;;;6.70;63.10;;;;;;5021616;28;20064;-45
2022/03/18 08:26:05;;;;;;;19.77;7.97;;;6.70;62.80;;;;;;5017046;28;20053;-42
2022/03/18 08:28:32;;;;;;;14.45;7.75;;;6.80;62.60;;;;;;5020919;28;20056;-43
2022/03/18 08:31:00;;;;;;;20.25;7.47;;;6.90;62.40;;;;;;5021007;28;20060;-42
2022/03/18 08:33:28;;;;;;;18.25;6.80;;;7.00;62.30;;;;;;5021112;28;20057;-43
2022/03/18 08:35:57;;;;;;;14.23;6.47;;;7.10;61.80;;;;;;5016724;28;21462;-42
2022/03/18 08:38:25;;;;;;;14.52;6.18;;;7.10;61.40;;;;;;5021387;28;20052;-43
2022/03/18 08:40:53;;;;;;;15.63;6.03;;;7.20;60.90;;;;;;5023699;28;20072;-42
2022/03/18 08:43:20;;;;;;;13.65;4.68;;;7.30;60.40;;;;;;5024761;28;20057;-42
2022/03/18 08:45:49;;;;;;;11.32;4.25;;;7.40;60.00;;;;;;5021215;28;20060;-42
2022/03/18 08:48:16;;;;;;;10.70;4.40;;;7.50;59.80;;;;;;5023076;28;20049;-44
2022/03/18 08:50:44;;;;;;;9.90;4.18;;;7.50;59.40;;;;;;5021517;28;20053;-42
2022/03/18 08:53:11;;;;;;;12.35;4.57;;;7.60;59.10;;;;;;5021559;28;20064;-43
2022/03/18 08:55:41;;;;;;;8.20;3.78;;;7.70;59.00;;;;;;5021818;28;20057;-42
2022/03/18 08:58:09;;;;;;;9.95;3.53;;;7.80;58.90;;;;;;5024200;28;20057;-42
2022/03/18 09:00:36;;;;;;;16.38;3.80;;;7.90;58.80;;;;;;5020821;28;20053;-42
2022/03/18 09:03:04;;;;;;;10.07;3.60;;;8.00;58.50;;;;;;5022328;28;20049;-42
2022/03/18 09:05:32;;;;;;;13.23;3.05;;;8.10;58.00;;;;;;5020008;28;20053;-44
2022/03/18 09:07:59;;;;;;;6.85;2.63;;;8.10;57.50;;;;;;5022499;28;20049;-42
2022/03/18 09:10:27;;;;;;;9.27;2.60;;;8.20;56.80;;;;;;5022486;28;20061;-42
2022/03/18 09:12:59;;;;;;;8.40;2.83;;;8.30;56.30;;;;;;5020973;28;20049;-42
2022/03/18 09:15:26;;;;;;;7.18;2.38;;;8.40;55.90;;;;;;5020834;28;20054;-44
2022/03/18 09:17:54;;;;;;;7.28;2.13;;;8.50;55.60;;;;;;5021912;28;20064;-43
2022/03/18 09:20:22;;;;;;;4.55;2.60;;;8.60;54.70;;;;;;5021273;28;20045;-42
2022/03/18 09:22:49;;;;;;;8.18;2.20;;;8.60;54.10;;;;;;5022186;28;20060;-42
2022/03/18 09:25:17;;;;;;;6.10;1.83;;;8.70;53.80;;;;;;5021059;28;20065;-42
2022/03/18 09:27:44;;;;;;;5.10;1.67;;;8.80;53.10;;;;;;5023182;28;20080;-42
2022/03/18 09:30:14;;;;;;;9.55;2.22;;;8.90;52.90;;;;;;5020549;28;20516;-48
2022/03/18 09:32:43;;;;;;;10.05;1.98;;;9.00;52.10;;;;;;5021630;28;20053;-43
2022/03/18 09:35:11;;;;;;;6.28;1.95;;;9.10;51.80;;;;;;5020374;28;20441;-42
2022/03/18 09:37:39;;;;;;;5.53;1.70;;;9.10;51.50;;;;;;5022554;28;20053;-42
2022/03/18 09:40:08;;;;;;;5.03;1.90;;;9.20;51.70;;;;;;5022236;28;20045;-48
2022/03/18 09:42:36;;;;;;;7.10;1.75;;;9.30;51.50;;;;;;5021835;28;20141;-42
2022/03/18 09:45:04;;;;;;;9.30;2.08;;;9.30;51.10;;;;;;5021602;28;20057;-42
2022/03/18 09:47:32;;;;;;;4.55;1.60;;;9.40;50.60;;;;;;5019450;28;20057;-44
2022/03/18 09:50:01;;;;;;;7.20;1.98;;;9.50;50.30;;;;;;5012784;28;20049;-42
2022/03/18 09:52:29;;;;;;;6.80;2.20;;;9.60;50.10;;;;;;5020467;28;20239;-42
2022/03/18 09:54:56;;;;;;;4.47;1.50;;;9.60;50.20;;;;;;5016074;28;20049;-42
2022/03/18 09:57:25;;;;;;;3.17;1.80;;;9.70;50.20;;;;;;5022997;28;20057;-42
2022/03/18 09:59:53;;;;;;;5.47;1.52;;;9.80;50.00;;;;;;5020938;28;20057;-46
2022/03/18 10:02:26;;;;;;;5.57;1.58;;;9.80;49.80;;;;;;5020330;28;20494;-42
2022/03/18 10:04:58;;;;;;;4.53;1.63;;;9.90;49.80;;;;;;5017915;28;20061;-42
2022/03/18 10:07:26;;;;;;;6.53;1.85;;;10.00;49.70;;;;;;5020001;28;20497;-42
2022/03/18 10:10:07;;;;;;;4.45;1.60;;;10.10;48.80;;;;;;5017892;28;20050;-43
2022/03/18 10:12:36;;;;;;;7.57;1.48;;;10.20;49.20;;;;;;5021774;28;20057;-43
2022/03/18 10:15:09;;;;;;;6.53;1.70;;;10.30;48.80;;;;;;5019466;28;20049;-43
2022/03/18 10:17:41;;;;;;;7.07;1.60;;;10.40;48.20;;;;;;5021180;28;20049;-43
2022/03/18 10:20:27;;;;;;;3.55;1.35;;;10.40;48.20;;;;;;5019766;28;20056;-43
2022/03/18 10:23:04;;;;;;;9.32;1.33;;;10.50;47.10;;;;;;5021312;28;20060;-42
2022/03/18 10:25:39;;;;;;;4.40;1.08;;;10.60;47.40;;;;;;5020147;28;20049;-42
2022/03/18 10:28:09;;;;;;;5.85;1.08;;;10.70;47.20;;;;;;5022473;28;20505;-43
2022/03/18 10:30:37;;;;;;;4.40;1.23;;;10.80;47.10;;;;;;5022466;28;20060;-44
2022/03/18 10:33:06;;;;;;;7.57;2.40;;;10.80;46.10;;;;;;5026425;28;20053;-43
2022/03/18 10:38:31;;;;;;;7.68;2.05;;;11.00;47.60;;;;;;5031744;28;20425;-43
2022/03/18 10:41:00;;;;;;;5.07;1.75;;;11.10;47.70;;;;;;5026285;28;20056;-43
2022/03/18 10:43:28;;;;;;;5.10;2.22;;;11.20;47.30;;;;;;5026161;28;20425;-42
2022/03/18 10:46:03;;;;;;;6.88;1.92;;;11.30;46.90;;;;;;5019335;28;20064;-42
2022/03/18 10:48:30;;;;;;;7.13;2.28;;;11.40;46.10;;;;;;5018264;28;20057;-42
2022/03/18 10:51:07;;;;;;;5.20;2.03;;;11.40;46.20;;;;;;5011679;28;20060;-42
2022/03/18 10:53:39;;;;;;;12.73;2.78;;;11.50;45.60;;;;;;5019175;28;20524;-43
2022/03/18 10:56:08;;;;;;;3.45;1.75;;;11.60;45.10;;;;;;5024709;28;20520;-42
2022/03/18 10:58:38;;;;;;;5.97;2.20;;;11.70;45.80;;;;;;5023960;28;20065;-42
2022/03/18 11:01:06;;;;;;;5.70;2.60;;;11.80;45.80;;;;;;5026817;28;20064;-44
2022/03/18 11:03:34;;;;;;;4.57;2.17;;;11.80;46.00;;;;;;5023779;28;20053;-42
2022/03/18 11:06:05;;;;;;;6.85;2.20;;;11.90;45.90;;;;;;5024374;28;20061;-42
2022/03/18 11:08:45;;;;;;;4.85;1.90;;;11.90;43.90;;;;;;5025323;28;20057;-42
2022/03/18 11:11:18;;;;;;;5.03;1.70;;;12.10;43.00;;;;;;5022514;28;20057;-43
2022/03/18 11:13:56;;;;;;;8.82;2.88;;;12.10;43.40;;;;;;5024459;28;20056;-42
2022/03/18 11:16:27;;;;;;;3.67;1.70;;;12.20;43.30;;;;;;5025430;28;20061;-42
2022/03/18 11:18:55;;;;;;;5.25;1.70;;;12.30;42.30;;;;;;5025401;28;20049;-44
2022/03/18 11:21:35;;;;;;;5.00;1.63;;;12.40;43.00;;;;;;5025057;28;20102;-42
2022/03/18 11:24:04;;;;;;;7.70;1.63;;;12.40;42.20;;;;;;5020863;28;20394;-43
2022/03/18 11:26:34;;;;;;;5.28;1.80;;;12.50;42.00;;;;;;5025550;28;20065;-42
2022/03/18 11:29:09;;;;;;;7.63;1.52;;;12.60;41.90;;;;;;5022358;28;20061;-43
2022/03/18 11:31:38;;;;;;;5.47;1.60;;;12.60;41.80;;;;;;5024425;28;20409;-43
2022/03/18 11:34:11;;;;;;;6.13;2.00;;;12.70;42.50;;;;;;5020295;28;20053;-42
2022/03/18 11:36:47;;;;;;;4.68;1.50;;;12.80;42.10;;;;;;5025027;28;20493;-47
2022/03/18 11:39:21;;;;;;;4.85;1.70;;;12.90;42.10;;;;;;5025589;28;20049;-43
2022/03/18 11:41:56;;;;;;;5.35;1.10;;;12.90;41.30;;;;;;5020494;28;20053;-42
2022/03/18 11:44:45;;;;;;;7.07;1.70;;;13.00;41.70;;;;;;5022385;28;20045;-43
2022/03/18 11:47:43;;;;;;;4.95;1.25;;;13.10;40.70;;;;;;5023348;28;20379;-46
2022/03/18 11:50:48;;;;;;;4.80;1.55;;;13.10;40.40;;;;;;5024560;28;20061;-42
2022/03/18 11:53:51;;;;;;;7.10;1.20;;;13.20;38.60;;;;;;5022980;28;20056;-44
2022/03/18 11:56:21;;;;;;;4.38;1.45;;;13.30;40.10;;;;;;5025039;28;20065;-42
2022/03/18 11:58:49;;;;;;;4.47;1.60;;;13.30;39.80;;;;;;5023207;28;20053;-42
2022/03/18 12:01:39;;;;;;;3.10;1.25;;;13.40;40.10;;;;;;5024902;28;20723;-42
2022/03/18 12:04:07;;;;;;;5.28;0.93;;;13.50;39.60;;;;;;5020405;28;20056;-42
2022/03/18 12:06:34;;;;;;;3.42;1.20;;;13.50;38.90;;;;;;5024382;28;20509;-42
2022/03/18 12:09:04;;;;;;;5.68;1.10;;;13.50;38.10;;;;;;5024461;28;20054;-42
2022/03/18 12:11:35;;;;;;;2.30;1.10;;;13.60;37.40;;;;;;5023843;28;20053;-42
2022/03/18 12:14:04;;;;;;;3.42;0.93;;;13.70;37.50;;;;;;5024361;28;20426;-42
2022/03/18 12:16:31;;;;;;;4.35;1.20;;;13.70;38.10;;;;;;5023211;28;20053;-42
2022/03/18 12:19:01;;;;;;;6.78;1.50;;;13.80;38.30;;;;;;5023503;28;20498;-43
2022/03/18 12:21:36;;;;;;;3.58;1.20;;;13.90;38.50;;;;;;5023967;28;20060;-43
2022/03/18 12:24:07;;;;;;;3.35;1.38;;;14.00;38.20;;;;;;5021641;28;20060;-42
2022/03/18 12:26:37;;;;;;;4.95;1.25;;;14.10;38.40;;;;;;5021864;28;20417;-44
2022/03/18 12:29:05;;;;;;;5.40;1.35;;;14.10;36.70;;;;;;5022677;28;20065;-42
2022/03/18 12:31:34;;;;;;;3.67;1.10;;;14.10;36.80;;;;;;5022517;28;20080;-43
2022/03/18 12:34:04;;;;;;;6.63;1.10;;;14.20;37.00;;;;;;5021770;28;20064;-42
2022/03/18 12:36:31;;;;;;;2.88;0.88;;;14.30;35.90;;;;;;5023015;28;20056;-43
2022/03/18 12:39:08;;;;;;;3.92;1.00;;;14.40;36.10;;;;;;5023608;28;20057;-42
2022/03/18 12:41:36;;;;;;;1.70;0.77;;;14.40;36.90;;;;;;5021574;28;20057;-43
2022/03/18 12:44:04;;;;;;;4.78;0.80;;;14.50;36.50;;;;;;5020203;28;20057;-42
2022/03/18 12:46:34;;;;;;;3.63;1.20;;;14.50;36.60;;;;;;5023107;28;20057;-41
2022/03/18 12:49:01;;;;;;;7.10;1.45;;;14.60;36.80;;;;;;5019646;28;20057;-42
2022/03/18 12:51:30;;;;;;;2.33;0.90;;;14.60;37.10;;;;;;5022397;28;20497;-42
2022/03/18 12:53:58;;;;;;;2.35;0.68;;;14.70;37.10;;;;;;5018622;28;21263;-45
2022/03/18 12:56:31;;;;;;;3.72;0.82;;;14.70;36.00;;;;;;5023771;28;20517;-42
2022/03/18 12:58:59;;;;;;;1.83;0.80;;;14.80;34.70;;;;;;5023476;28;20065;-42
2022/03/18 13:01:28;;;;;;;2.60;0.88;;;14.80;34.80;;;;;;5023530;28;20493;-42
2022/03/18 13:03:59;;;;;;;2.45;0.65;;;14.90;35.00;;;;;;5021441;28;20053;-43
2022/03/18 13:06:27;;;;;;;3.20;0.70;;;15.00;34.30;;;;;;5021751;28;20096;-42